Home > Products > Valid Products > TAF

000
FTUS42 KJAX 250300 AAB
TAFSSI
TAF AMD
KSSI 250302Z 2503/2524 25005KT P6SM SCT060 SCT250
     FM251300 24008KT P6SM SCT020 SCT250
     FM251900 20010KT P6SM VCTS SCT035CB SCT120 BKN250=



000
FTUS42 KJAX 250100 AAA
TAFSSI
TAF AMD
KSSI 250105Z 2501/2524 25006KT P6SM VCTS SCT040CB SCT060 SCT250
      TEMPO 2501/2502 VRB10G20KT 4SM SHRA BKN040
     FM250200 25005KT P6SM SCT060 SCT250
     FM251300 24008KT P6SM SCT020 SCT250
     FM251900 20010KT P6SM VCTS SCT035CB SCT120 BKN250=



000
FTUS42 KJAX 242300
TAFGNV
TAF
KGNV 242337Z 2500/2524 24002KT P6SM SCT250
     FM250700 VRB02KT 5SM BR FEW015 SCT120 BKN250
     FM251300 24007KT P6SM VCSH SCT020 BKN100 BKN250
     FM251600 23008KT P6SM VCTS SCT040CB BKN080 OVC200=



000
FTUS42 KJAX 242300
TAFSSI
TAF
KSSI 242337Z 2500/2524 25006KT P6SM FEW060 SCT250
     FM251300 24008KT P6SM SCT020 SCT250
     FM251900 20010KT P6SM VCTS SCT035CB SCT120 BKN250=



000
FTUS42 KJAX 242300
TAFJAX
TAF
KJAX 242337Z 2500/2524 23008KT P6SM FEW050 SCT250
     FM250100 23004KT P6SM SCT250
     FM251300 26008KT P6SM FEW020 SCT250
     FM251700 24006KT P6SM VCTS SCT040CB BKN100 BKN250=



000
FTUS42 KJAX 242300
TAFCRG
TAF
KCRG 242337Z 2500/2524 25008KT P6SM VCSH FEW060 SCT250
     FM250100 24004KT P6SM SCT250
     FM251400 27008KT P6SM FEW020 BKN250
     FM251700 20008KT P6SM VCTS SCT040CB BKN100 BKN250=



000
FTUS42 KJAX 242200 AAB
TAFCRG
TAF AMD
KCRG 242210Z 2422/2518 26010KT P6SM VCSH SCT050 SCT250
     FM250100 24004KT P6SM SCT250
     FM251400 27008KT P6SM SCT040 SCT120 BKN250
     FM251700 20008KT P6SM VCTS SCT040CB BKN100 BKN250=



000
FTUS42 KJAX 242000 AAB
TAFJAX
TAF AMD
KJAX 242038Z 2421/2518 24010KT P6SM VCSH SCT040 BKN250
      TEMPO 2421/2422 SHRA BKN040
     FM250100 23004KT P6SM SCT250
     FM251300 26008KT P6SM SCT040 SCT120 BKN250
     FM251700 24006KT P6SM VCTS SCT040CB BKN100 BKN250=



000
FTUS42 KJAX 242000 AAA
TAFSSI
TAF AMD
KSSI 242038Z 2421/2518 24010G18KT P6SM FEW040
     FM242300 25006KT P6SM SCT250
     FM251300 24008KT P6SM SCT040 SCT250=



000
FTUS42 KJAX 242000 AAA
TAFGNV
TAF AMD
KGNV 242030Z 2421/2518 25010G18KT P6SM VCSH SCT040
     FM250000 24002KT P6SM SCT250
     FM250700 VRB02KT 5SM BR FEW010 SCT120 BKN250
     FM251300 24007KT P6SM VCSH SCT035 BKN100 BKN250
     FM251600 23008KT P6SM VCTS SCT040CB BKN080 OVC200=



000
FTUS42 KJAX 242000 AAA
TAFCRG
TAF AMD
KCRG 242025Z 2420/2518 24010KT P6SM SCT050 SCT250
     FM250100 24004KT P6SM SCT250
     FM251400 27008KT P6SM SCT040 SCT120 BKN250
     FM251700 20008KT P6SM VCTS SCT040CB BKN100 BKN250=



000
FTUS42 KJAX 242000 AAA
TAFJAX
TAF AMD
KJAX 242023Z 2420/2518 24010KT P6SM SCT040 BKN250
     FM250100 23004KT P6SM SCT250
     FM251300 26008KT P6SM SCT040 SCT120 BKN250
     FM251700 24006KT P6SM VCTS SCT040CB BKN100 BKN250=



000
FTUS42 KJAX 241700
TAFSSI
TAF
KSSI 241720Z 2418/2518 21010KT P6SM SCT040
     FM242100 18010KT P6SM VCTS SCT040CB
     FM250200 24006KT P6SM SCT250=



000
FTUS42 KJAX 241700
TAFCRG
TAF
KCRG 241720Z 2418/2518 25010KT P6SM SCT040
     FM242000 21010KT P6SM VCTS SCT040CB
     FM250100 24004KT P6SM SCT250=



000
FTUS42 KJAX 241700
TAFGNV
TAF
KGNV 241720Z 2418/2518 25010KT P6SM VCTS SCT040CB
     FM250000 24002KT P6SM SCT250
      TEMPO 2507/2511 5SM BR=



000
FTUS42 KJAX 241700
TAFJAX
TAF
KJAX 241720Z 2418/2518 25010KT P6SM SCT040
     FM242000 22010KT P6SM VCTS SCT040CB
     FM250100 23004KT P6SM SCT250=



000
FTUS42 KJAX 241100
TAFJAX
TAF
KJAX 241120Z 2412/2512 24004KT P6SM FEW250
     FM241400 23007KT P6SM SCT030
     FM242100 22010KT P6SM VCTS BKN050CB
     FM250100 22005KT P6SM SCT050=



000
FTUS42 KJAX 241100
TAFSSI
TAF
KSSI 241120Z 2412/2512 26005KT P6SM FEW250
     FM241400 23007KT P6SM SCT020
     FM241800 18010KT P6SM SCT030
     FM250300 23005KT P6SM SCT100=



000
FTUS42 KJAX 241100
TAFGNV
TAF
KGNV 241120Z 2412/2512 VRB02KT P6SM FEW250
     FM241600 25007KT P6SM SCT030
     FM241900 24009KT P6SM VCTS BKN050CB
     FM242200 25007KT P6SM SCT060
     FM250100 24002KT P6SM SCT250=



000
FTUS42 KJAX 241100
TAFCRG
TAF
KCRG 241120Z 2412/2512 19005KT P6SM FEW020
     FM241400 25007KT P6SM SCT025
     FM242100 21010KT P6SM VCTS BKN040CB
     FM250100 23005KT P6SM SCT050=



000
FTUS42 KJAX 240500
TAFJAX
TAF
KJAX 240520Z 2406/2506 23004KT P6SM SCT250
     FM241400 25007KT P6SM SCT030
     FM242000 24009KT P6SM VCTS BKN050CB
     FM250000 22005KT P6SM SCT050=



000
FTUS42 KJAX 240500
TAFGNV
TAF
KGNV 240520Z 2406/2506 26003KT P6SM SCT250
     FM241600 25007KT P6SM SCT030
     FM241900 24009KT P6SM BKN050
     FM250000 25005KT P6SM FEW050=



000
FTUS42 KJAX 240500
TAFSSI
TAF
KSSI 240520Z 2406/2506 23005KT P6SM FEW080 SCT250
     FM241400 25007KT P6SM SCT020
     FM242000 20009KT P6SM SCT030
     FM250300 24005KT P6SM SCT050=



000
FTUS42 KJAX 240500
TAFCRG
TAF
KCRG 240520Z 2406/2506 22006KT P6SM SCT250
     FM241400 25007KT P6SM SCT025
     FM242100 21009KT P6SM VCTS BKN040CB
     FM250000 22005KT P6SM SCT050=



000
FTUS42 KJAX 240100 AAA
TAFGNV
TAF AMD
KGNV 240104Z 2401/2424 24004KT P6SM SCT050 BKN250
     FM241400 25007KT P6SM SCT025
     FM241900 24009KT P6SM VCTS BKN040CB=



000
FTUS42 KJAX 232300 AAA
TAFCRG
TAF AMD
KCRG 232343Z 2400/2424 07008KT P6SM SCT040 BKN100
     FM240200 23004KT P6SM SCT050 BKN250
     FM241400 25007KT P6SM SCT025
     FM241800 24009KT P6SM VCTS BKN040CB=



000
FTUS42 KJAX 232300
TAFCRG
TAF
KCRG 232320Z 2400/2424 07008KT P6SM VCTS BKN040CB
     FM240100 23004KT P6SM SCT050 BKN250
     FM241400 25007KT P6SM SCT025
     FM241800 24009KT P6SM VCTS BKN040CB=



000
FTUS42 KJAX 232300
TAFSSI
TAF
KSSI 232320Z 2400/2424 12008KT P6SM SCT050 BKN250
     FM240200 23004KT P6SM SCT050 BKN250
     FM241400 25007KT P6SM SCT025
     FM241800 24009KT P6SM VCTS BKN040CB=



000
FTUS42 KJAX 232300
TAFGNV
TAF
KGNV 232320Z 2400/2424 VRB03KT P6SM VCSH BKN040 BKN080
     FM240100 VRB03KT P6SM SCT050 BKN250
     FM241400 25007KT P6SM SCT025
     FM241900 24009KT P6SM VCTS BKN040CB=



000
FTUS42 KJAX 232300
TAFJAX
TAF
KJAX 232320Z 2400/2424 09008KT P6SM BKN050
     FM240200 23004KT P6SM SCT050 BKN250
     FM241400 25007KT P6SM SCT025
     FM241900 24009KT P6SM VCTS BKN040CB=



000
FTUS42 KJAX 232200 AAB
TAFCRG
TAF AMD
KCRG 232238Z 2323/2418 14008KT P6SM VCTS BKN040CB
      TEMPO 2323/2324 3SM TSRA OVC025CB
     FM240000 22004KT P6SM SCT250
     FM241400 25007KT P6SM SCT020 SCT250=



000
FTUS42 KJAX 232100 AAA
TAFGNV
TAF AMD
KGNV 232138Z 2322/2418 26006KT P6SM VCTS SCT030CB
      TEMPO 2322/2323 3SM TSRA OVC025CB
     FM232300 24007KT P6SM VCTS BKN040CB
     FM240200 24004KT P6SM SCT250
      TEMPO 2408/2412 4SM BR
     FM241400 25006KT P6SM SCT020 SCT250=



000
FTUS42 KJAX 232100 AAB
TAFJAX
TAF AMD
KJAX 232124Z 2321/2418 12008KT P6SM VCTS BKN040CB
      TEMPO 2321/2323 3SM TSRA OVC020CB
     FM240000 22004KT P6SM SCT250
     FM241400 25006KT P6SM SCT020 SCT250=



000
FTUS42 KJAX 231900 AAA
TAFJAX
TAF AMD
KJAX 231947Z 2320/2418 14008KT P6SM VCTS BKN040CB
     FM240000 22004KT P6SM SCT250
     FM241400 25006KT P6SM SCT020 SCT250=



000
FTUS42 KJAX 231900 AAA
TAFCRG
TAF AMD
KCRG 231947Z 2320/2418 14008KT P6SM VCTS BKN040CB
     FM240000 22004KT P6SM SCT250
     FM241400 25007KT P6SM SCT020 SCT250=



000
FTUS42 KJAX 231700
TAFSSI
TAF
KSSI 231721Z 2318/2418 13009KT P6SM VCTS SCT030CB
     FM240200 20007KT P6SM SCT250
     FM240900 24006KT P6SM SCT020 SCT250=



000
FTUS42 KJAX 231700
TAFJAX
TAF
KJAX 231721Z 2318/2418 23005KT P6SM BKN035
     FM232100 14008KT P6SM VCTS BKN040CB
     FM240200 22004KT P6SM SCT250
     FM241400 25006KT P6SM SCT020 SCT250=



000
FTUS42 KJAX 231700
TAFCRG
TAF
KCRG 231721Z 2318/2418 23005KT P6SM BKN035
     FM232000 14008KT P6SM VCTS BKN040CB
     FM240200 22004KT P6SM SCT250
     FM241400 25007KT P6SM SCT020 SCT250=



000
FTUS42 KJAX 231700
TAFGNV
TAF
KGNV 231721Z 2318/2418 26006KT P6SM VCTS SCT030CB
     FM232000 24007KT P6SM VCTS BKN040CB
     FM240200 24004KT P6SM SCT250
      TEMPO 2408/2412 4SM BR
     FM241400 25006KT P6SM SCT020 SCT250=



000
FTUS42 KJAX 231100
TAFJAX
TAF
KJAX 231121Z 2312/2412 00000KT P6SM FEW025 SCT250
     FM231300 26004KT P6SM SCT025
     FM231900 16008KT P6SM SCT050
     FM240200 22004KT P6SM SCT250=



000
FTUS42 KJAX 231100
TAFCRG
TAF
KCRG 231121Z 2312/2412 VRB03KT P6SM FEW020 SCT250
     FM231400 26004KT P6SM SCT025
     FM231700 14008KT P6SM SCT035 BKN150
     FM240200 20004KT P6SM SCT250=



000
FTUS42 KJAX 231100
TAFGNV
TAF
KGNV 231121Z 2312/2412 00000KT P6SM FEW005 SCT250
     FM231500 26004KT P6SM VCSH SCT025
     FM231800 23008KT P6SM BKN040
     FM240000 25003KT P6SM SCT060 BKN250=



000
FTUS42 KJAX 231100
TAFSSI
TAF
KSSI 231121Z 2312/2412 VRB04KT P6SM SCT020
     FM231300 23004KT P6SM SCT025
     FM231700 15009KT P6SM SCT030=



000
FTUS42 KJAX 231000 AAA
TAFGNV
TAF AMD
KGNV 231000Z 2310/2406 00000KT P6SM SCT250
     FM231500 26004KT P6SM VCSH SCT025
     FM231800 23008KT P6SM BKN040
      TEMPO 2319/2322 3SM TSRA BKN025CB
     FM240000 25003KT P6SM SCT060 BKN250=



000
FTUS42 KJAX 230500
TAFGNV
TAF
KGNV 230529Z 2306/2406 00000KT P6SM FEW015 BKN250
      TEMPO 2307/2311 3SM BR BKN010
     FM231500 26004KT P6SM VCSH SCT025
     FM231800 23008KT P6SM BKN040 PROB30 2318/2322 3SM TSRA BKN025CB
     FM240000 25003KT P6SM SCT060 BKN250=



000
FTUS42 KJAX 230500
TAFSSI
TAF
KSSI 230529Z 2306/2406 17004KT P6SM VCSH SCT020 BKN150
     FM231300 23004KT P6SM SCT025
     FM231700 15009KT P6SM SCT030=



000
FTUS42 KJAX 230500
TAFJAX
TAF
KJAX 230529Z 2306/2406 00000KT P6SM FEW015 SCT250
     FM231300 26004KT P6SM SCT025
     FM231900 16008KT P6SM SCT040 BKN150 PROB30 2320/2323 4SM TSRA
      BKN040CB
     FM240200 22004KT P6SM SCT250=



000
FTUS42 KJAX 230500
TAFCRG
TAF
KCRG 230529Z 2306/2406 VRB03KT P6SM VCSH SCT020 SCT250
     FM231400 26004KT P6SM SCT025
     FM231700 14008KT P6SM SCT035 BKN150 PROB30 2320/2322 4SM TSRA
      BKN035CB
     FM240200 20004KT P6SM SCT250=



000
FTUS42 KJAX 230000 AAB
TAFGNV
TAF AMD
KGNV 230051Z 2301/2324 VRB03KT P6SM SCT040 BKN250
      TEMPO 2307/2311 3SM BR
     FM231500 26004KT P6SM VCSH SCT025
     FM231900 22008KT P6SM VCTS BKN040CB=



000
FTUS42 KJAX 230000 AAA
TAFGNV
TAF AMD
KGNV 230007Z 2300/2324 VRB03KT 5SM TSRA BKN040CB BKN100
     FM230200 00000KT P6SM BKN050 BKN150
      TEMPO 2307/2311 3SM BR
     FM231500 26004KT P6SM VCSH SCT025
     FM231900 22008KT P6SM VCTS BKN040CB=



000
FTUS42 KJAX 222300
TAFGNV
TAF
KGNV 222322Z 2300/2324 VRB15G25KT 3SM TSRA BKN025CB BKN060
     FM230100 VRB03KT P6SM BKN035 BKN150
     FM231500 26004KT P6SM VCSH SCT025
     FM231900 22008KT P6SM VCTS BKN040CB=



000
FTUS42 KJAX 222300
TAFCRG
TAF
KCRG 222322Z 2300/2324 09004KT P6SM SCT040 BKN250
     FM231400 26004KT P6SM VCSH SCT025
     FM231700 14008KT P6SM VCTS SCT035CB=



000
FTUS42 KJAX 222300
TAFSSI
TAF
KSSI 222322Z 2300/2324 13007KT P6SM SCT040 BKN250
     FM230300 23003KT P6SM BKN250
     FM231400 26005KT P6SM VCSH SCT025
     FM231700 13008KT P6SM VCTS SCT035CB=



000
FTUS42 KJAX 222300
TAFJAX
TAF
KJAX 222322Z 2300/2324 09004KT P6SM SCT040 BKN250
     FM231500 26004KT P6SM VCSH SCT025
     FM231800 14008KT P6SM VCTS BKN040CB=



000
FTUS42 KJAX 222100 AAA
TAFJAX
TAF AMD
KJAX 222108Z 2221/2318 07007KT P6SM VCTS SCT050CB BKN120
     FM222300 14004KT P6SM SCT040 BKN250
     FM230600 00000KT P6SM FEW250
     FM231500 26003KT P6SM SCT020 SCT250=



000
FTUS42 KJAX 222000 AAA
TAFCRG
TAF AMD
KCRG 222024Z 2220/2318 09009KT P6SM VCTS BKN035CB
     FM222200 13004KT P6SM SCT040 SCT250
     FM230500 00000KT P6SM FEW250
     FM231500 26003KT P6SM SCT020 SCT250=



000
FTUS42 KJAX 222000 AAA
TAFSSI
TAF AMD
KSSI 222014Z 2220/2318 10008KT P6SM SCT035 BKN250
     FM230000 13005KT P6SM SCT040 SCT250
     FM230500 VRB03KT P6SM FEW250
     FM231600 14006KT P6SM SCT020 SCT250=



000
FTUS42 KJAX 221700
TAFCRG
TAF
KCRG 221733Z 2218/2318 09007KT P6SM VCTS BKN035CB
      TEMPO 2218/2222 VRB15G30KT 3SM TSRA BKN030CB
     FM230000 13004KT P6SM SCT040 SCT250
     FM230500 00000KT P6SM FEW250
     FM231500 26003KT P6SM SCT020 SCT250=



000
FTUS42 KJAX 221700
TAFGNV
TAF
KGNV 221733Z 2218/2318 VRB05KT P6SM VCTS BKN035CB
      TEMPO 2219/2223 VRB15G30KT 3SM TSRA BKN030CB
     FM230100 10003KT P6SM SCT040 SCT250
     FM230500 00000KT P6SM FEW250
     FM231000 00000KT 5SM BR FEW250
     FM231200 00000KT P6SM FEW250
     FM231500 26003KT P6SM SCT020 SCT250=



000
FTUS42 KJAX 221700
TAFJAX
TAF
KJAX 221733Z 2218/2318 10007KT P6SM VCTS BKN035CB
      TEMPO 2219/2222 VRB15G30KT 3SM TSRA BKN030CB
     FM230000 14004KT P6SM SCT040 SCT250
     FM230600 00000KT P6SM FEW250
     FM231500 26003KT P6SM SCT020 SCT250=



000
FTUS42 KJAX 221700
TAFSSI
TAF
KSSI 221733Z 2218/2318 10008KT P6SM VCTS BKN035CB
      TEMPO 2218/2221 VRB15G30KT 3SM TSRA BKN030CB
     FM230000 13005KT P6SM SCT040 SCT250
     FM230500 VRB03KT P6SM FEW250
     FM231600 14006KT P6SM SCT020 SCT250=



000
FTUS42 KJAX 221600 AAC
TAFGNV
TAF AMD
KGNV 221600Z 2216/2312 VRB05KT P6SM SCT025 SCT250
      TEMPO 2216/2218 BKN025
     FM221800 VRB06KT P6SM VCTS BKN035CB
      TEMPO 2219/2223 VRB15G30KT 3SM TSRA BKN030CB
     FM222300 VRB03KT P6SM BKN050=



000
FTUS42 KJAX 221500 AAB
TAFJAX
TAF AMD
KJAX 221538Z 2216/2312 VRB04KT P6SM VCSH SCT020 SCT250
      TEMPO 2216/2218 BKN020
     FM221800 10007KT P6SM VCTS BKN035CB
      TEMPO 2218/2222 VRB15G30KT 3SM TSRA BKN030CB
     FM230000 14004KT P6SM SCT040=



000
FTUS42 KJAX 221500 AAB
TAFCRG
TAF AMD
KCRG 221538Z 2216/2312 VRB04KT P6SM VCSH SCT025 SCT250
      TEMPO 2216/2218 BKN025
     FM221800 10008KT P6SM VCTS BKN035CB
      TEMPO 2218/2222 VRB15G30KT 3SM TSRA BKN030CB
     FM230000 15004KT P6SM SCT040=



000
FTUS42 KJAX 221500 AAA
TAFSSI
TAF AMD
KSSI 221508Z 2215/2312 VRB06KT P6SM SCT025
     FM221900 11008KT P6SM VCTS BKN035CB
     FM230000 VRB04KT P6SM VCSH SCT040 BKN250=



000
FTUS42 KJAX 221500 AAA
TAFJAX
TAF AMD
KJAX 221506Z 2215/2312 VRB04KT P6SM SCT020 SCT250
      TEMPO 2215/2217 BKN020
     FM221800 10007KT P6SM VCTS BKN035CB
      TEMPO 2219/2222 VRB15G30KT 3SM TSRA BKN030CB
     FM230000 14004KT P6SM SCT040=



000
FTUS42 KJAX 221400 AAA
TAFCRG
TAF AMD
KCRG 221456Z 2215/2312 VRB04KT P6SM SCT025 SCT250
      TEMPO 2215/2217 BKN025
     FM221800 10008KT P6SM VCTS BKN035CB
      TEMPO 2219/2222 VRB15G30KT 3SM TSRA BKN030CB
     FM230000 15004KT P6SM SCT040=



000
FTUS42 KJAX 221400 AAB
TAFGNV
TAF AMD
KGNV 221406Z 2214/2312 VRB05KT P6SM SCT018 SCT250
      TEMPO 2214/2216 BKN018
     FM221700 19008KT P6SM VCTS BKN035CB
      TEMPO 2218/2220 VRB15G30KT 3SM TSRA BKN030CB
     FM222300 VRB03KT P6SM BKN050=



000
FTUS42 KJAX 221400 AAA
TAFGNV
TAF AMD
KGNV 221400Z 2214/2312 VRB05KT P6SM SCT025 SCT250
     FM221700 19008KT P6SM VCTS BKN035CB
      TEMPO 2218/2220 VRB15G30KT 3SM TSRA BKN030CB
     FM222300 VRB03KT P6SM BKN050=



000
FTUS42 KJAX 221100
TAFJAX
TAF
KJAX 221128Z 2212/2312 VRB03KT P6SM FEW030 SCT250
     FM221400 31004KT P6SM VCSH SCT030 SCT250
     FM221700 10008KT P6SM VCTS BKN035CB
      TEMPO 2219/2222 VRB15G30KT 3SM TSRA BKN030CB
     FM230000 14004KT P6SM SCT040=



000
FTUS42 KJAX 221100
TAFGNV
TAF
KGNV 221128Z 2212/2312 VRB03KT P6SM FEW030 SCT250
     FM221400 14004KT P6SM SCT030 BKN070
     FM221700 19008KT P6SM VCTS BKN035CB
      TEMPO 2218/2220 VRB15G30KT 3SM TSRA BKN030CB
     FM222300 VRB03KT P6SM BKN050=



000
FTUS42 KJAX 221100
TAFCRG
TAF
KCRG 221128Z 2212/2312 VRB03KT P6SM FEW030 SCT250
     FM221400 33004KT P6SM VCSH SCT030 SCT250
     FM221800 10008KT P6SM VCTS BKN035CB
      TEMPO 2219/2222 VRB15G30KT 3SM TSRA BKN030CB
     FM230000 15004KT P6SM SCT040=



000
FTUS42 KJAX 221100
TAFSSI
TAF
KSSI 221128Z 2212/2312 VRB03KT P6SM FEW030 SCT250
     FM221400 VRB06KT P6SM VCSH SCT025
     FM221900 12008KT P6SM VCTS BKN035CB
     FM230000 VRB04KT P6SM VCSH SCT040 BKN250=



000
FTUS42 KJAX 220500
TAFCRG
TAF
KCRG 220520Z 2206/2306 VRB03KT P6SM VCSH SCT015 BKN100
     FM221300 33004KT P6SM VCSH SCT030
     FM221700 10008KT P6SM VCTS BKN035CB
     FM230000 15004KT P6SM SCT040=



000
FTUS42 KJAX 220500
TAFGNV
TAF
KGNV 220520Z 2206/2306 VRB03KT P6SM SCT100 BKN150
      TEMPO 2209/2211 4SM BR
     FM221400 VRB04KT P6SM SCT030 BKN070
     FM221700 19008KT P6SM VCTS BKN035CB
     FM222300 VRB03KT P6SM BKN050=



000
FTUS42 KJAX 220500
TAFSSI
TAF
KSSI 220520Z 2206/2306 VRB03KT P6SM FEW015 BKN150
     FM221400 28006KT P6SM VCSH SCT025
     FM221900 12008KT P6SM VCTS BKN035CB
     FM230000 VRB04KT P6SM VCSH SCT040 BKN250=



000
FTUS42 KJAX 220500
TAFJAX
TAF
KJAX 220520Z 2206/2306 VRB03KT P6SM FEW030 BKN150
     FM221400 31004KT P6SM VCSH SCT030
     FM221800 10008KT P6SM VCTS BKN035CB
     FM230000 14004KT P6SM SCT040=



000
FTUS42 KJAX 220400 AAC
TAFGNV
TAF AMD
KGNV 220420Z 2204/2224 34005KT P6SM VCSH SCT035 BKN100
     FM220500 VRB03KT P6SM SCT050 BKN150
      TEMPO 2207/2211 3SM BR
     FM221400 30004KT P6SM VCSH SCT030
     FM221800 10008KT P6SM VCTS BKN035CB=



    US Dept of Commerce
    National Oceanic and Atmospheric Administration
    National Weather Service
    1325 East West Highway
    Silver Spring, MD 20910
    Page Author: NWS Internet Services Team
Disclaimer
Information Quality
Credits
Glossary
Privacy Policy
Freedom of Information Act (FOIA)
About Us
Career Opportunities